createdAt,value
2023-12-11T00:00:16.124Z,0.80
2023-12-11T00:02:45.925Z,1.15
2023-12-11T00:05:17.786Z,0.85
2023-12-11T00:07:46.264Z,0.47
2023-12-11T00:10:16.077Z,0.80
2023-12-11T00:12:44.815Z,0.70
2023-12-11T00:15:14.390Z,0.85
2023-12-11T00:17:43.064Z,0.60
2023-12-11T00:20:13.149Z,1.17
2023-12-11T00:22:43.373Z,0.75
2023-12-11T00:25:12.676Z,0.93
2023-12-11T00:27:41.693Z,1.13
2023-12-11T00:30:11.526Z,1.20
2023-12-11T00:32:40.561Z,1.40
2023-12-11T00:35:09.524Z,1.00
2023-12-11T00:37:38.290Z,1.00
2023-12-11T00:40:10.282Z,1.30
2023-12-11T00:42:38.971Z,1.10
2023-12-11T00:45:08.211Z,1.02
2023-12-11T00:47:36.764Z,1.25
2023-12-11T00:50:07.335Z,0.73
2023-12-11T00:52:36.363Z,0.93
2023-12-11T00:55:04.828Z,0.85
2023-12-11T00:57:34.769Z,0.70
2023-12-11T01:00:03.640Z,0.80
2023-12-11T01:02:32.307Z,1.15
2023-12-11T01:05:00.676Z,1.20
2023-12-11T01:07:29.532Z,0.80
2023-12-11T01:09:58.062Z,1.00
2023-12-11T01:12:26.703Z,1.35
2023-12-11T01:14:56.851Z,0.80
2023-12-11T01:17:38.163Z,1.38
2023-12-11T01:20:10.684Z,0.90
2023-12-11T01:22:38.975Z,0.90
2023-12-11T01:25:10.401Z,1.00
2023-12-11T01:27:39.099Z,0.90
2023-12-11T01:30:12.501Z,0.70
2023-12-11T01:32:41.201Z,1.15
2023-12-11T01:35:10.637Z,1.05
2023-12-11T01:37:39.043Z,1.48
2023-12-11T01:40:09.256Z,0.88
2023-12-11T01:42:38.265Z,0.93
2023-12-11T01:45:09.770Z,0.73
2023-12-11T01:47:38.678Z,1.02
2023-12-11T01:50:09.803Z,0.70
2023-12-11T01:52:39.172Z,0.55
2023-12-11T01:55:09.876Z,1.42
2023-12-11T01:57:38.671Z,0.47
2023-12-11T02:00:10.497Z,1.15
2023-12-11T02:02:40.307Z,1.23
2023-12-11T02:05:09.416Z,0.73
2023-12-11T02:07:40.002Z,0.82
2023-12-11T02:10:12.168Z,1.00
2023-12-11T02:12:41.444Z,0.73
2023-12-11T02:15:11.919Z,1.15
2023-12-11T02:17:40.388Z,1.17
2023-12-11T02:20:09.732Z,0.80
2023-12-11T02:22:38.797Z,0.80
2023-12-11T02:25:11.334Z,0.90
2023-12-11T02:27:41.400Z,1.33
2023-12-11T02:30:10.242Z,0.80
2023-12-11T02:32:38.928Z,1.35
2023-12-11T02:35:09.031Z,0.90
2023-12-11T02:37:37.360Z,0.98
2023-12-11T02:40:08.700Z,0.77
2023-12-11T02:42:38.148Z,1.02
2023-12-11T02:45:09.571Z,1.20
2023-12-11T02:47:39.039Z,0.70
2023-12-11T02:50:09.909Z,1.50
2023-12-11T02:52:40.448Z,2.05
2023-12-11T02:55:09.883Z,0.60
2023-12-11T02:57:38.613Z,0.93
2023-12-11T03:00:10.643Z,0.82
2023-12-11T03:02:39.804Z,1.35
2023-12-11T03:05:08.514Z,1.05
2023-12-11T03:07:37.737Z,0.85
2023-12-11T03:10:06.741Z,1.10
2023-12-11T03:12:35.243Z,1.30
2023-12-11T03:15:04.483Z,0.88
2023-12-11T03:17:34.559Z,1.23
2023-12-11T03:20:03.213Z,1.00
2023-12-11T03:22:31.787Z,1.20
2023-12-11T03:25:00.348Z,1.27
2023-12-11T03:27:29.004Z,1.15
2023-12-11T03:29:58.216Z,0.70
2023-12-11T03:32:27.076Z,1.17
2023-12-11T03:34:56.939Z,1.02
2023-12-11T03:37:26.038Z,0.85
2023-12-11T03:39:55.984Z,1.00
2023-12-11T03:42:24.258Z,0.80
2023-12-11T03:44:53.049Z,1.20
2023-12-11T03:47:22.569Z,1.13
2023-12-11T03:49:52.261Z,0.90
2023-12-11T03:52:21.957Z,1.52
2023-12-11T03:54:50.366Z,1.00
2023-12-11T03:57:19.075Z,0.98
2023-12-11T03:59:47.758Z,1.40
2023-12-11T04:02:16.404Z,1.13
2023-12-11T04:04:45.238Z,1.15
2023-12-11T04:07:14.366Z,1.35
2023-12-11T04:09:47.332Z,1.33
2023-12-11T04:12:15.885Z,1.15
2023-12-11T04:14:44.309Z,1.48
2023-12-11T04:17:12.583Z,1.23
2023-12-11T04:19:41.507Z,1.40
2023-12-11T04:22:10.327Z,0.82
2023-12-11T04:24:38.944Z,1.10
2023-12-11T04:27:08.570Z,0.85
2023-12-11T04:29:36.851Z,1.30
2023-12-11T04:32:06.169Z,1.10
2023-12-11T04:34:34.678Z,0.60
2023-12-11T04:37:03.316Z,1.08
2023-12-11T04:39:31.723Z,1.10
2023-12-11T04:42:00.345Z,1.05
2023-12-11T04:44:31.224Z,1.17
2023-12-11T04:46:59.551Z,1.02
2023-12-11T04:49:28.237Z,1.13
2023-12-11T04:51:56.893Z,1.08
2023-12-11T04:54:25.263Z,1.42
2023-12-11T04:56:53.913Z,1.38
2023-12-11T04:59:22.644Z,1.23
2023-12-11T05:01:52.527Z,1.15
2023-12-11T05:04:21.332Z,1.10
2023-12-11T05:06:49.781Z,1.70
2023-12-11T05:09:18.438Z,1.55
2023-12-11T05:11:46.996Z,1.25
2023-12-11T05:14:16.519Z,1.52
2023-12-11T05:16:45.015Z,1.63
2023-12-11T05:19:15.115Z,1.13
2023-12-11T05:21:45.369Z,2.10
2023-12-11T05:24:14.490Z,1.27
2023-12-11T05:26:43.099Z,1.48
2023-12-11T05:29:11.785Z,1.20
2023-12-11T05:31:41.683Z,1.42
2023-12-11T05:34:10.686Z,1.08
2023-12-11T05:36:40.454Z,1.10
2023-12-11T05:39:09.157Z,0.88
2023-12-11T05:41:37.577Z,1.48
2023-12-11T05:44:09.484Z,1.73
2023-12-11T05:46:40.382Z,1.17
2023-12-11T05:49:08.903Z,1.65
2023-12-11T05:51:37.316Z,1.42
2023-12-11T05:54:07.377Z,1.17
2023-12-11T05:56:37.661Z,1.85
2023-12-11T05:59:06.412Z,1.00
2023-12-11T06:01:34.941Z,1.60
2023-12-11T06:04:04.846Z,1.38
2023-12-11T06:06:33.173Z,2.20
2023-12-11T06:09:01.592Z,1.75
2023-12-11T06:11:32.412Z,1.58
2023-12-11T06:14:00.723Z,1.30
2023-12-11T06:16:29.628Z,1.13
2023-12-11T06:18:57.886Z,1.50
2023-12-11T06:21:27.606Z,1.20
2023-12-11T06:23:56.076Z,1.30
2023-12-11T06:26:34.440Z,2.08
2023-12-11T06:29:03.305Z,1.42
2023-12-11T06:31:32.647Z,1.65
2023-12-11T06:34:01.468Z,1.27
2023-12-11T06:36:30.339Z,1.40
2023-12-11T06:38:59.063Z,2.22
2023-12-11T06:41:27.635Z,1.10
2023-12-11T06:43:58.633Z,1.20
2023-12-11T06:46:31.058Z,1.33
2023-12-11T06:49:00.157Z,1.60
2023-12-11T06:51:30.472Z,2.00
2023-12-11T06:54:00.692Z,1.30
2023-12-11T06:56:32.485Z,1.55
2023-12-11T06:59:03.293Z,1.75
2023-12-11T07:01:34.873Z,1.40
2023-12-11T07:04:04.750Z,1.25
2023-12-11T07:06:33.422Z,1.38
2023-12-11T07:09:02.144Z,1.33
2023-12-11T07:11:30.669Z,1.45
2023-12-11T07:13:59.723Z,1.30
2023-12-11T07:16:29.800Z,1.45
2023-12-11T07:19:01.821Z,1.30
2023-12-11T07:21:30.764Z,1.33
2023-12-11T07:23:59.211Z,1.02
2023-12-11T07:26:27.532Z,1.02
2023-12-11T07:28:56.798Z,1.20
2023-12-11T07:31:26.374Z,1.05
2023-12-11T07:33:57.279Z,1.67
2023-12-11T07:36:26.551Z,0.93
2023-12-11T07:38:54.943Z,1.55
2023-12-11T07:41:24.658Z,0.95
2023-12-11T07:43:53.257Z,1.08
2023-12-11T07:46:23.413Z,1.15
2023-12-11T07:48:53.152Z,1.20
2023-12-11T07:51:24.738Z,0.95
2023-12-11T07:53:56.640Z,1.20
2023-12-11T07:56:25.948Z,2.10
2023-12-11T07:58:55.600Z,1.73
2023-12-11T08:01:24.194Z,1.83
2023-12-11T08:03:53.137Z,1.48
2023-12-11T08:06:26.901Z,1.85
2023-12-11T08:08:58.320Z,2.03
2023-12-11T08:11:28.662Z,1.40
2023-12-11T08:13:57.657Z,1.00
2023-12-11T08:16:26.510Z,1.75
2023-12-11T08:18:55.461Z,1.27
2023-12-11T08:21:25.470Z,2.50
2023-12-11T08:23:53.768Z,1.38
2023-12-11T08:26:23.235Z,1.70
2023-12-11T08:28:52.240Z,1.00
2023-12-11T08:31:20.950Z,1.58
2023-12-11T08:33:49.499Z,1.38
2023-12-11T08:36:18.218Z,0.82
2023-12-11T08:38:48.120Z,1.27
2023-12-11T08:41:17.991Z,1.27
2023-12-11T08:43:47.951Z,1.40
2023-12-11T08:46:16.710Z,1.05
2023-12-11T08:48:46.112Z,1.30
2023-12-11T08:51:14.860Z,1.30
2023-12-11T08:53:44.014Z,1.75
2023-12-11T08:56:16.157Z,1.90
2023-12-11T08:58:44.904Z,1.27
2023-12-11T09:01:13.623Z,1.17
2023-12-11T09:03:43.880Z,1.40
2023-12-11T09:06:14.631Z,1.80
2023-12-11T09:08:43.772Z,1.05
2023-12-11T09:11:13.623Z,0.98
2023-12-11T09:13:42.790Z,1.40
2023-12-11T09:16:12.413Z,1.67
2023-12-11T09:18:41.582Z,0.88
2023-12-11T09:21:10.830Z,1.00
2023-12-11T09:23:39.704Z,1.40
2023-12-11T09:26:08.070Z,1.67
2023-12-11T09:28:48.194Z,1.30
2023-12-11T09:31:21.625Z,2.13
2023-12-11T09:33:50.439Z,2.10
2023-12-11T09:36:20.206Z,1.85
2023-12-11T09:38:48.872Z,1.27
2023-12-11T09:41:17.735Z,1.17
2023-12-11T09:43:51.703Z,1.25
2023-12-11T09:48:50.723Z,1.30
2023-12-11T09:51:19.778Z,1.55
2023-12-11T09:53:49.706Z,1.40
2023-12-11T09:56:19.645Z,1.67
2023-12-11T09:58:50.618Z,1.73
2023-12-11T10:01:20.885Z,1.48
2023-12-11T10:03:49.670Z,1.52
2023-12-11T10:06:18.262Z,1.25
2023-12-11T10:08:48.446Z,1.60
2023-12-11T10:11:19.500Z,1.52
2023-12-11T10:13:51.275Z,1.27
2023-12-11T10:16:31.271Z,1.50
2023-12-11T10:19:01.658Z,1.48
2023-12-11T10:21:40.175Z,1.88
2023-12-11T10:24:12.491Z,1.45
2023-12-11T10:26:46.734Z,1.80
2023-12-11T10:29:27.598Z,1.35
2023-12-11T10:32:02.891Z,1.27
2023-12-11T10:34:49.319Z,1.70
2023-12-11T10:37:18.844Z,1.50
2023-12-11T10:39:57.627Z,2.20
2023-12-11T10:42:26.910Z,1.60
2023-12-11T10:44:57.901Z,1.52
2023-12-11T10:47:26.493Z,1.40
2023-12-11T10:50:03.913Z,1.52
2023-12-11T10:52:33.053Z,2.53
2023-12-11T10:55:02.477Z,1.83
2023-12-11T10:57:33.375Z,2.00
2023-12-11T11:00:14.842Z,1.67
2023-12-11T11:02:47.760Z,1.58
2023-12-11T11:05:17.809Z,1.92
2023-12-11T11:07:53.612Z,2.03
2023-12-11T11:10:23.824Z,1.63
2023-12-11T11:12:58.410Z,2.40
2023-12-11T11:15:29.944Z,1.58
2023-12-11T11:18:03.150Z,1.50
2023-12-11T11:20:33.059Z,1.85
2023-12-11T11:23:23.632Z,2.17
2023-12-11T11:25:54.465Z,2.65
2023-12-11T11:28:43.244Z,2.20
2023-12-11T11:31:23.432Z,2.65
2023-12-11T11:33:58.404Z,2.03
2023-12-11T11:36:50.020Z,1.98
2023-12-11T11:39:18.300Z,1.70
2023-12-11T11:41:48.030Z,1.77
2023-12-11T11:44:17.583Z,2.33
2023-12-11T11:46:55.715Z,2.38
2023-12-11T11:49:36.663Z,1.70
2023-12-11T11:52:07.377Z,2.25
2023-12-11T11:54:39.616Z,2.35
2023-12-11T11:57:08.578Z,1.67
2023-12-11T11:59:44.411Z,2.50
2023-12-11T12:02:13.928Z,3.30
2023-12-11T12:04:42.913Z,1.73
2023-12-11T12:07:11.412Z,5.80
2023-12-11T12:09:40.319Z,1.83
2023-12-11T12:12:15.832Z,1.83
2023-12-11T12:14:44.420Z,1.60
2023-12-11T12:17:14.852Z,2.08
2023-12-11T12:19:43.325Z,1.92
2023-12-11T12:22:14.941Z,2.10
2023-12-11T12:24:49.945Z,1.23
2023-12-11T12:27:24.063Z,1.60
2023-12-11T12:29:53.287Z,1.58
2023-12-11T12:32:23.799Z,1.42
2023-12-11T12:34:55.901Z,1.75
2023-12-11T12:37:24.614Z,1.00
2023-12-11T12:39:58.201Z,1.75
2023-12-11T12:42:31.563Z,1.52
2023-12-11T12:45:00.669Z,1.88
2023-12-11T12:47:33.516Z,1.23
2023-12-11T12:50:08.130Z,1.92
2023-12-11T12:52:38.796Z,2.60
2023-12-11T12:55:08.474Z,2.60
2023-12-11T12:57:38.185Z,1.83
2023-12-11T13:00:08.143Z,1.77
2023-12-11T13:02:38.078Z,2.33
2023-12-11T13:05:08.558Z,2.15
2023-12-11T13:07:37.050Z,2.38
2023-12-11T13:10:12.425Z,1.73
2023-12-11T13:12:40.894Z,1.88
2023-12-11T13:15:11.034Z,1.83
2023-12-11T13:17:40.936Z,1.50
2023-12-11T13:20:11.108Z,1.27
2023-12-11T13:22:41.203Z,1.40
2023-12-11T13:25:10.600Z,1.80
2023-12-11T13:27:39.168Z,2.13
2023-12-11T13:30:09.629Z,1.90
2023-12-11T13:32:40.672Z,1.83
2023-12-11T13:35:10.303Z,1.70
2023-12-11T13:37:39.268Z,2.08
2023-12-11T13:40:09.427Z,1.20
2023-12-11T13:42:37.995Z,2.20
2023-12-11T13:45:08.297Z,1.48
2023-12-11T13:47:36.978Z,1.33
2023-12-11T13:50:08.874Z,2.08
2023-12-11T13:52:37.457Z,1.55
2023-12-11T13:55:06.525Z,1.38
2023-12-11T13:57:35.933Z,1.67
2023-12-11T14:00:05.515Z,2.78
2023-12-11T14:02:59.460Z,1.70
2023-12-11T14:05:24.228Z,1.38
2023-12-11T14:07:54.733Z,1.63
2023-12-11T14:10:24.642Z,1.70
2023-12-11T14:12:53.317Z,2.00
2023-12-11T14:15:25.019Z,1.35
2023-12-11T14:17:53.936Z,2.15
2023-12-11T14:20:24.797Z,2.65
2023-12-11T14:22:53.462Z,1.60
2023-12-11T14:25:23.204Z,1.45
2023-12-11T14:27:51.774Z,1.20
2023-12-11T14:30:21.088Z,1.58
2023-12-11T14:32:50.232Z,1.42
2023-12-11T14:35:19.464Z,1.73
2023-12-11T14:37:49.201Z,0.95
2023-12-11T14:40:18.281Z,1.95
2023-12-11T14:42:49.200Z,0.95
2023-12-11T14:45:18.044Z,1.15
2023-12-11T14:47:46.742Z,1.20
2023-12-11T14:50:18.292Z,1.40
2023-12-11T14:52:48.342Z,1.77
2023-12-11T14:55:25.016Z,1.52
2023-12-11T14:57:54.778Z,2.03
2023-12-11T15:00:23.860Z,1.42
2023-12-11T15:02:52.256Z,1.58
2023-12-11T15:05:20.807Z,1.45
2023-12-11T15:07:51.721Z,1.08
2023-12-11T15:10:20.359Z,0.93
2023-12-11T15:12:48.673Z,2.10
2023-12-11T15:15:17.952Z,1.58
2023-12-11T15:17:46.744Z,1.75
2023-12-11T15:20:16.495Z,1.50
2023-12-11T15:22:45.435Z,1.30
2023-12-11T15:25:15.847Z,2.17
2023-12-11T15:27:46.729Z,1.33
2023-12-11T15:30:15.621Z,2.00
2023-12-11T15:32:49.411Z,1.60
2023-12-11T15:35:19.099Z,1.52
2023-12-11T15:37:47.793Z,1.63
2023-12-11T15:40:18.681Z,1.40
2023-12-11T15:42:47.430Z,2.92
2023-12-11T15:45:17.309Z,2.45
2023-12-11T15:48:00.734Z,1.15
2023-12-11T15:50:35.820Z,1.70
2023-12-11T15:53:06.131Z,1.60
2023-12-11T15:55:35.889Z,2.72
2023-12-11T15:58:08.177Z,1.30
2023-12-11T16:00:37.618Z,1.52
2023-12-11T16:03:06.710Z,1.35
2023-12-11T16:05:35.207Z,0.95
2023-12-11T16:08:03.812Z,1.83
2023-12-11T16:10:32.277Z,1.70
2023-12-11T16:13:02.931Z,1.25
2023-12-11T16:15:32.532Z,1.25
2023-12-11T16:18:01.112Z,1.83
2023-12-11T16:20:29.757Z,2.25
2023-12-11T16:22:58.364Z,1.55
2023-12-11T16:25:27.362Z,1.65
2023-12-11T16:27:56.171Z,1.98
2023-12-11T16:30:26.487Z,1.98
2023-12-11T16:32:55.208Z,2.58
2023-12-11T16:35:23.775Z,2.00
2023-12-11T16:37:53.233Z,1.42
2023-12-11T16:40:21.966Z,1.92
2023-12-11T16:42:50.706Z,1.10
2023-12-11T16:45:19.689Z,2.78
2023-12-11T16:47:55.248Z,1.92
2023-12-11T16:50:25.674Z,1.48
2023-12-11T16:52:54.172Z,1.92
2023-12-11T16:55:22.772Z,1.58
2023-12-11T16:57:51.785Z,1.90
2023-12-11T17:00:21.783Z,1.88
2023-12-11T17:02:52.060Z,1.25
2023-12-11T17:05:21.034Z,1.60
2023-12-11T17:07:49.465Z,1.88
2023-12-11T17:10:18.118Z,1.40
2023-12-11T17:12:47.049Z,2.38
2023-12-11T17:15:16.007Z,1.55
2023-12-11T17:17:44.751Z,1.77
2023-12-11T17:20:14.821Z,2.63
2023-12-11T17:22:43.612Z,4.05
2023-12-11T17:25:12.063Z,2.63
2023-12-11T17:27:40.522Z,2.85
2023-12-11T17:30:09.860Z,3.08
2023-12-11T17:32:38.320Z,2.17
2023-12-11T17:35:07.626Z,2.88
2023-12-11T17:37:38.322Z,2.63
2023-12-11T17:40:09.065Z,2.45
2023-12-11T17:42:37.696Z,2.85
2023-12-11T17:45:07.417Z,3.15
2023-12-11T17:47:35.887Z,2.55
2023-12-11T17:50:05.080Z,2.55
2023-12-11T17:52:35.244Z,2.80
2023-12-11T17:55:07.432Z,2.75
2023-12-11T17:57:36.282Z,3.55
2023-12-11T18:00:06.122Z,2.72
2023-12-11T18:02:34.766Z,2.30
2023-12-11T18:05:03.147Z,1.80
2023-12-11T18:07:31.936Z,1.85
2023-12-11T18:10:00.574Z,1.92
2023-12-11T18:12:30.639Z,2.40
2023-12-11T18:15:00.625Z,2.65
2023-12-11T18:17:29.891Z,2.28
2023-12-11T18:19:59.568Z,2.13
2023-12-11T18:22:29.243Z,2.35
2023-12-11T18:24:57.678Z,1.52
2023-12-11T18:27:28.846Z,2.63
2023-12-11T18:30:00.266Z,2.33
2023-12-11T18:32:29.326Z,3.53
2023-12-11T18:35:00.085Z,2.97
2023-12-11T18:37:29.242Z,2.15
2023-12-11T18:39:58.306Z,1.83
2023-12-11T18:42:26.675Z,2.35
2023-12-11T18:44:55.064Z,1.52
2023-12-11T18:47:25.389Z,2.33
2023-12-11T18:49:54.192Z,3.00
2023-12-11T18:52:22.844Z,1.90
2023-12-11T18:54:51.352Z,2.78
2023-12-11T18:57:20.673Z,2.45
2023-12-11T18:59:49.276Z,2.95
2023-12-11T19:02:18.606Z,2.30
2023-12-11T19:04:48.517Z,3.22
2023-12-11T19:07:16.764Z,1.95
2023-12-11T19:09:45.067Z,2.55
2023-12-11T19:12:13.520Z,2.92
2023-12-11T19:14:42.528Z,3.22
2023-12-11T19:17:11.141Z,3.13
2023-12-11T19:19:49.010Z,2.70
2023-12-11T19:22:19.091Z,2.50
2023-12-11T19:24:47.743Z,2.40
2023-12-11T19:27:16.289Z,3.33
2023-12-11T19:29:45.882Z,2.10
2023-12-11T19:34:42.625Z,2.53
2023-12-11T19:37:11.182Z,2.58
2023-12-11T19:39:40.748Z,2.58
2023-12-11T19:42:09.791Z,2.38
2023-12-11T19:44:40.762Z,2.38
2023-12-11T19:47:09.956Z,2.58
2023-12-11T19:49:39.231Z,3.33
2023-12-11T19:52:08.800Z,2.53
2023-12-11T19:54:41.147Z,3.28
2023-12-11T19:57:18.160Z,2.75
2023-12-11T19:59:46.526Z,3.35
2023-12-11T20:02:14.918Z,2.95
2023-12-11T20:04:44.440Z,4.03
2023-12-11T20:07:14.079Z,2.17
2023-12-11T20:09:46.176Z,2.63
2023-12-11T20:12:16.266Z,3.58
2023-12-11T20:14:44.971Z,3.53
2023-12-11T20:17:15.221Z,2.58
2023-12-11T20:19:43.859Z,3.03
2023-12-11T20:22:16.518Z,3.42
2023-12-11T20:24:45.662Z,2.95
2023-12-11T20:27:15.684Z,4.35
2023-12-11T20:29:44.656Z,3.17
2023-12-11T20:32:13.547Z,4.65
2023-12-11T20:34:42.798Z,3.35
2023-12-11T20:37:13.218Z,2.90
2023-12-11T20:39:44.918Z,3.42
2023-12-11T20:42:14.161Z,3.30
2023-12-11T20:44:44.058Z,2.60
2023-12-11T20:47:12.501Z,3.15
2023-12-11T20:49:41.641Z,3.97
2023-12-11T20:52:11.332Z,3.38
2023-12-11T20:54:40.171Z,3.40
2023-12-11T20:57:08.859Z,3.90
2023-12-11T20:59:37.117Z,2.90
2023-12-11T21:02:07.823Z,3.22
2023-12-11T21:04:36.694Z,4.07
2023-12-11T21:07:05.647Z,2.83
2023-12-11T21:09:34.224Z,3.53
2023-12-11T21:12:02.843Z,2.90
2023-12-11T21:14:31.633Z,3.88
2023-12-11T21:16:59.820Z,2.42
2023-12-11T21:19:29.861Z,3.15
2023-12-11T21:21:58.605Z,3.47
2023-12-11T21:24:26.904Z,3.42
2023-12-11T21:26:56.125Z,3.53
2023-12-11T21:29:25.104Z,3.47
2023-12-11T21:31:54.306Z,3.83
2023-12-11T21:34:23.240Z,3.78
2023-12-11T21:36:52.867Z,3.72
2023-12-11T21:39:22.826Z,4.43
2023-12-11T21:41:51.989Z,2.88
2023-12-11T21:44:21.477Z,2.75
2023-12-11T21:46:49.899Z,3.38
2023-12-11T21:49:20.855Z,3.85
2023-12-11T21:51:53.077Z,4.97
2023-12-11T21:54:22.832Z,3.45
2023-12-11T21:56:52.699Z,3.78
2023-12-11T21:59:28.866Z,3.35
2023-12-11T22:02:03.943Z,4.50
2023-12-11T22:04:32.245Z,5.55
2023-12-11T22:07:02.376Z,3.70
2023-12-11T22:09:31.954Z,3.78
2023-12-11T22:12:00.486Z,3.53
2023-12-11T22:14:29.279Z,3.70
2023-12-11T22:16:57.951Z,3.40
2023-12-11T22:19:26.221Z,4.45
2023-12-11T22:21:54.838Z,4.10
2023-12-11T22:24:24.491Z,3.75
2023-12-11T22:26:52.938Z,3.13
2023-12-11T22:29:21.223Z,3.53
2023-12-11T22:31:49.588Z,3.95
2023-12-11T22:34:18.062Z,2.72
2023-12-11T22:36:46.458Z,3.72
2023-12-11T22:39:14.962Z,3.90
2023-12-11T22:41:46.421Z,3.22
2023-12-11T22:44:15.645Z,3.60
2023-12-11T22:46:45.037Z,3.90
2023-12-11T22:49:13.392Z,3.53
2023-12-11T22:51:44.384Z,3.90
2023-12-11T22:54:12.696Z,3.45
2023-12-11T22:56:41.064Z,3.95
2023-12-11T22:59:11.615Z,2.50
2023-12-11T23:01:40.235Z,3.60
2023-12-11T23:04:08.789Z,2.97
2023-12-11T23:06:36.935Z,3.30
2023-12-11T23:09:06.091Z,3.80
2023-12-11T23:11:35.088Z,4.35
2023-12-11T23:14:03.692Z,3.50
2023-12-11T23:16:34.377Z,2.90
2023-12-11T23:19:02.872Z,3.22
2023-12-11T23:21:32.608Z,4.95
2023-12-11T23:24:04.138Z,3.70
2023-12-11T23:26:32.252Z,3.97
2023-12-11T23:29:00.525Z,3.40
2023-12-11T23:31:28.938Z,4.35
2023-12-11T23:33:59.114Z,4.50
2023-12-11T23:36:27.808Z,3.25
2023-12-11T23:38:58.311Z,3.33
2023-12-11T23:41:26.680Z,3.55
2023-12-11T23:43:55.624Z,4.63
2023-12-11T23:46:24.285Z,3.63
2023-12-11T23:48:53.234Z,3.10
2023-12-11T23:51:23.457Z,3.50
2023-12-11T23:53:51.973Z,3.90
2023-12-11T23:56:21.524Z,4.97
2023-12-11T23:58:49.858Z,3.75
